createdAt,value
2023-05-07T00:00:47.099Z,74.00
2023-05-07T00:03:15.030Z,59.07
2023-05-07T00:05:42.555Z,67.63
2023-05-07T00:08:09.071Z,59.30
2023-05-07T00:10:35.541Z,42.00
2023-05-07T00:13:02.183Z,46.67
2023-05-07T00:15:28.699Z,39.27
2023-05-07T00:17:55.213Z,33.20
2023-05-07T00:20:21.660Z,36.50
2023-05-07T00:22:48.130Z,32.70
2023-05-07T00:25:14.554Z,28.80
2023-05-07T00:27:41.045Z,31.77
2023-05-07T00:30:09.117Z,27.67
2023-05-07T00:32:35.940Z,25.37
2023-05-07T00:35:02.419Z,26.57
2023-05-07T00:37:28.866Z,26.37
2023-05-07T00:39:57.045Z,27.20
2023-05-07T00:42:23.599Z,24.93
2023-05-07T00:44:50.062Z,24.70
2023-05-07T00:47:16.776Z,25.50
2023-05-07T00:49:44.564Z,26.53
2023-05-07T00:52:14.244Z,29.63
2023-05-07T00:54:42.283Z,26.63
2023-05-07T00:57:10.602Z,26.93
2023-05-07T00:59:37.136Z,26.47
2023-05-07T01:02:03.788Z,29.13
2023-05-07T01:04:31.424Z,31.10
2023-05-07T01:07:00.238Z,30.77
2023-05-07T01:09:27.709Z,29.90
2023-05-07T01:11:54.555Z,31.30
2023-05-07T01:14:21.889Z,35.60
2023-05-07T01:16:50.114Z,34.53
2023-05-07T01:19:19.249Z,37.77
2023-05-07T01:21:49.844Z,34.03
2023-05-07T01:24:16.926Z,46.23
2023-05-07T01:26:46.728Z,37.67
2023-05-07T01:29:13.884Z,48.13
2023-05-07T01:31:41.905Z,38.70
2023-05-07T01:34:09.925Z,49.27
2023-05-07T01:36:39.247Z,59.20
2023-05-07T01:39:07.964Z,50.90
2023-05-07T01:41:34.910Z,61.17
2023-05-07T01:44:01.554Z,78.93
2023-05-07T01:46:28.945Z,80.50
2023-05-07T01:48:55.516Z,65.80
2023-05-07T01:51:23.427Z,71.27
2023-05-07T01:53:52.171Z,119.97
2023-05-07T01:56:22.523Z,99.77
2023-05-07T01:58:49.188Z,124.57
2023-05-07T02:01:15.797Z,129.60
2023-05-07T02:03:42.571Z,120.83
2023-05-07T02:06:09.565Z,108.17
2023-05-07T02:08:36.445Z,115.93
2023-05-07T02:11:03.187Z,106.77
2023-05-07T02:13:31.063Z,105.17
2023-05-07T02:15:57.971Z,101.73
2023-05-07T02:18:24.504Z,92.40
2023-05-07T02:20:51.769Z,101.00
2023-05-07T02:23:18.358Z,94.03
2023-05-07T02:25:44.886Z,100.07
2023-05-07T02:28:11.368Z,105.93
2023-05-07T02:30:38.954Z,108.23
2023-05-07T02:33:05.704Z,119.63
2023-05-07T02:35:32.191Z,127.57
2023-05-07T02:37:58.610Z,134.97
2023-05-07T02:40:25.464Z,153.47
2023-05-07T02:42:51.933Z,130.00
2023-05-07T02:45:19.294Z,158.53
2023-05-07T02:47:45.811Z,132.20
2023-05-07T02:50:12.486Z,129.90
2023-05-07T02:52:39.160Z,141.07
2023-05-07T02:55:06.159Z,117.33
2023-05-07T02:57:32.623Z,126.07
2023-05-07T02:59:59.575Z,117.97
2023-05-07T03:02:25.999Z,132.17
2023-05-07T03:04:52.841Z,129.27
2023-05-07T03:07:19.394Z,141.33
2023-05-07T03:09:46.357Z,128.47
2023-05-07T03:12:12.792Z,137.17
2023-05-07T03:14:39.283Z,139.57
2023-05-07T03:17:06.039Z,151.97
2023-05-07T03:19:32.497Z,157.40
2023-05-07T03:21:58.995Z,156.13
2023-05-07T03:24:25.538Z,158.27
2023-05-07T03:26:52.000Z,149.87
2023-05-07T03:29:18.714Z,172.20
2023-05-07T03:31:45.253Z,156.93
2023-05-07T03:34:11.760Z,166.57
2023-05-07T03:36:38.187Z,165.00
2023-05-07T03:39:04.881Z,154.87
2023-05-07T03:41:31.360Z,154.17
2023-05-07T03:43:57.818Z,154.07
2023-05-07T03:46:27.147Z,170.00
2023-05-07T03:48:53.715Z,183.37
2023-05-07T03:51:20.183Z,166.03
2023-05-07T03:53:46.607Z,177.00
2023-05-07T03:56:13.094Z,169.40
2023-05-07T03:58:39.548Z,178.10
2023-05-07T04:01:06.011Z,178.80
2023-05-07T04:03:32.617Z,173.00
2023-05-07T04:05:59.157Z,175.07
2023-05-07T04:08:25.577Z,174.67
2023-05-07T04:10:58.786Z,174.03
2023-05-07T04:13:25.819Z,177.60
2023-05-07T04:15:56.096Z,177.30
2023-05-07T04:18:22.764Z,182.67
2023-05-07T04:20:50.948Z,180.93
2023-05-07T04:23:17.481Z,173.63
2023-05-07T04:25:44.014Z,178.60
2023-05-07T04:28:10.482Z,180.60
2023-05-07T04:30:36.943Z,190.23
2023-05-07T04:33:03.572Z,193.90
2023-05-07T04:35:30.045Z,185.40
2023-05-07T04:37:56.494Z,196.27
2023-05-07T04:40:23.180Z,186.00
2023-05-07T04:42:49.616Z,174.57
2023-05-07T04:45:16.363Z,182.60
2023-05-07T04:47:42.898Z,202.47
2023-05-07T04:50:09.989Z,192.63
2023-05-07T04:52:36.733Z,196.97
2023-05-07T04:55:03.513Z,201.90
2023-05-07T04:57:29.949Z,197.93
2023-05-07T04:59:56.416Z,197.27
2023-05-07T05:02:22.861Z,203.13
2023-05-07T05:04:49.395Z,200.67
2023-05-07T05:07:15.828Z,193.30
2023-05-07T05:09:42.354Z,194.70
2023-05-07T05:12:10.318Z,194.27
2023-05-07T05:14:37.051Z,188.37
2023-05-07T05:17:03.510Z,203.83
2023-05-07T05:19:29.966Z,187.57
2023-05-07T05:21:56.516Z,202.77
2023-05-07T05:24:22.999Z,201.70
2023-05-07T05:26:49.466Z,195.87
2023-05-07T05:29:15.933Z,189.67
2023-05-07T05:31:42.833Z,194.03
2023-05-07T05:34:09.354Z,193.40
2023-05-07T05:36:35.838Z,203.87
2023-05-07T05:39:02.381Z,194.00
2023-05-07T05:41:28.861Z,199.60
2023-05-07T05:43:55.316Z,187.07
2023-05-07T05:46:21.871Z,193.10
2023-05-07T05:48:48.311Z,197.03
2023-05-07T05:51:14.816Z,195.83
2023-05-07T05:53:41.276Z,194.10
2023-05-07T05:56:07.976Z,188.03
2023-05-07T05:58:34.407Z,202.23
2023-05-07T06:01:01.076Z,193.83
2023-05-07T06:03:27.543Z,208.10
2023-05-07T06:05:54.021Z,193.07
2023-05-07T06:08:20.822Z,199.80
2023-05-07T06:10:47.369Z,200.70
2023-05-07T06:13:13.928Z,189.63
2023-05-07T06:15:40.475Z,190.33
2023-05-07T06:18:07.039Z,190.33
2023-05-07T06:20:33.605Z,192.87
2023-05-07T06:23:00.037Z,184.17
2023-05-07T06:25:26.494Z,192.50
2023-05-07T06:27:52.914Z,193.50
2023-05-07T06:30:19.516Z,203.60
2023-05-07T06:32:45.990Z,188.23
2023-05-07T06:35:12.468Z,196.87
2023-05-07T06:37:40.573Z,199.60
2023-05-07T06:40:08.366Z,197.80
2023-05-07T06:42:35.152Z,202.53
2023-05-07T06:45:02.039Z,194.87
2023-05-07T06:47:28.515Z,194.87
2023-05-07T06:49:55.049Z,194.90
2023-05-07T06:52:21.524Z,198.33
2023-05-07T06:54:48.040Z,186.43
2023-05-07T06:57:14.507Z,197.73
2023-05-07T06:59:41.122Z,188.03
2023-05-07T07:02:07.634Z,200.97
2023-05-07T07:04:34.130Z,196.30
2023-05-07T07:07:00.624Z,192.70
2023-05-07T07:09:27.090Z,187.20
2023-05-07T07:11:53.568Z,192.57
2023-05-07T07:14:20.090Z,187.53
2023-05-07T07:16:47.860Z,185.43
2023-05-07T07:19:16.187Z,197.70
2023-05-07T07:21:43.188Z,186.30
2023-05-07T07:24:09.651Z,182.03
2023-05-07T07:26:36.244Z,182.80
2023-05-07T07:29:02.728Z,174.03
2023-05-07T07:31:29.313Z,179.83
2023-05-07T07:33:55.897Z,182.07
2023-05-07T07:36:23.810Z,166.03
2023-05-07T07:38:54.839Z,168.57
2023-05-07T07:41:21.369Z,163.40
2023-05-07T07:43:49.159Z,148.97
2023-05-07T07:46:16.678Z,167.07
2023-05-07T07:48:43.143Z,151.80
2023-05-07T07:51:09.633Z,154.57
2023-05-07T07:53:36.087Z,143.17
2023-05-07T07:56:04.976Z,157.70
2023-05-07T07:58:32.664Z,159.47
2023-05-07T08:00:59.243Z,137.67
2023-05-07T08:03:25.826Z,145.67
2023-05-07T08:05:52.332Z,141.17
2023-05-07T08:08:18.791Z,147.73
2023-05-07T08:10:45.617Z,148.70
2023-05-07T08:13:12.145Z,143.00
2023-05-07T08:15:38.660Z,143.27
2023-05-07T08:18:05.340Z,137.03
2023-05-07T08:20:32.050Z,139.13
2023-05-07T08:22:58.589Z,142.67
2023-05-07T08:25:25.187Z,140.00
2023-05-07T08:27:51.665Z,138.53
2023-05-07T08:30:18.146Z,140.17
2023-05-07T08:32:44.675Z,139.87
2023-05-07T08:35:11.360Z,129.63
2023-05-07T08:37:37.919Z,137.70
2023-05-07T08:40:06.573Z,134.37
2023-05-07T08:42:38.518Z,123.53
2023-05-07T08:45:09.340Z,118.47
2023-05-07T08:47:48.785Z,132.00
2023-05-07T08:50:15.581Z,119.60
2023-05-07T08:52:42.189Z,120.07
2023-05-07T08:55:10.289Z,124.07
2023-05-07T08:57:37.104Z,111.30
2023-05-07T09:00:08.275Z,116.07
2023-05-07T09:02:49.117Z,119.80
2023-05-07T09:05:15.658Z,112.93
2023-05-07T09:07:42.165Z,124.97
2023-05-07T09:10:09.192Z,114.63
2023-05-07T09:12:37.242Z,111.57
2023-05-07T09:15:04.151Z,111.90
2023-05-07T09:17:30.708Z,117.73
2023-05-07T09:19:57.779Z,107.53
2023-05-07T09:22:24.336Z,109.57
2023-05-07T09:24:51.768Z,105.70
2023-05-07T09:27:19.003Z,108.20
2023-05-07T09:29:45.892Z,105.10
2023-05-07T09:32:12.407Z,112.40
2023-05-07T09:34:38.933Z,104.77
2023-05-07T09:37:06.797Z,117.07
2023-05-07T09:39:40.922Z,116.57
2023-05-07T09:42:07.656Z,102.80
2023-05-07T09:44:35.442Z,99.63
2023-05-07T09:47:03.005Z,103.60
2023-05-07T09:49:33.382Z,94.50
2023-05-07T09:52:01.585Z,100.07
2023-05-07T09:54:31.712Z,88.67
2023-05-07T09:56:59.410Z,113.00
2023-05-07T09:59:29.871Z,95.70
2023-05-07T10:01:59.283Z,94.03
2023-05-07T10:04:28.890Z,92.03
2023-05-07T10:06:56.620Z,92.27
2023-05-07T10:09:23.885Z,94.50
2023-05-07T10:11:51.078Z,94.80
2023-05-07T10:14:18.394Z,95.40
2023-05-07T10:16:45.804Z,90.90
2023-05-07T10:19:12.887Z,92.87
2023-05-07T10:21:43.007Z,95.87
2023-05-07T10:24:26.835Z,94.20
2023-05-07T10:26:58.107Z,90.33
2023-05-07T10:29:35.864Z,94.57
2023-05-07T10:32:12.748Z,92.80
2023-05-07T10:34:43.276Z,88.27
2023-05-07T10:37:10.987Z,87.10
2023-05-07T10:39:37.947Z,99.00
2023-05-07T10:42:11.898Z,90.20
2023-05-07T10:44:38.739Z,89.20
2023-05-07T10:47:17.466Z,87.23
2023-05-07T10:49:43.847Z,83.13
2023-05-07T10:52:18.549Z,81.33
2023-05-07T10:54:46.226Z,85.80
2023-05-07T10:57:37.512Z,94.13
2023-05-07T11:00:04.924Z,86.70
2023-05-07T11:03:06.810Z,88.50
2023-05-07T11:05:37.297Z,81.37
2023-05-07T11:08:05.836Z,92.83
2023-05-07T11:10:53.063Z,81.40
2023-05-07T11:13:40.835Z,79.13
2023-05-07T11:16:18.238Z,85.50
2023-05-07T11:18:50.924Z,81.63
2023-05-07T11:21:42.633Z,83.37
2023-05-07T11:24:10.284Z,89.03
2023-05-07T11:26:44.581Z,93.13
2023-05-07T11:29:20.832Z,84.53
2023-05-07T11:31:53.157Z,91.83
2023-05-07T11:34:24.651Z,89.70
2023-05-07T11:36:51.517Z,84.33
2023-05-07T11:39:34.449Z,74.27
2023-05-07T11:42:01.470Z,78.57
2023-05-07T11:44:42.455Z,77.17
2023-05-07T11:47:09.161Z,78.17
2023-05-07T11:49:35.674Z,86.57
2023-05-07T11:52:02.137Z,80.13
2023-05-07T11:54:36.356Z,78.30
2023-05-07T11:57:03.073Z,78.80
2023-05-07T11:59:29.547Z,80.57
2023-05-07T12:02:00.322Z,82.57
2023-05-07T12:04:27.055Z,90.13
2023-05-07T12:06:56.846Z,84.57
2023-05-07T12:09:23.383Z,89.17
2023-05-07T12:11:49.944Z,91.30
2023-05-07T12:14:19.265Z,95.60
2023-05-07T12:16:46.415Z,84.63
2023-05-07T12:19:16.167Z,90.67
2023-05-07T12:21:42.795Z,80.63
2023-05-07T12:24:09.296Z,73.83
2023-05-07T12:26:39.247Z,80.77
2023-05-07T12:29:05.868Z,77.03
2023-05-07T12:31:32.432Z,85.57
2023-05-07T12:33:58.944Z,84.47
2023-05-07T12:36:26.924Z,70.20
2023-05-07T12:38:55.635Z,78.57
2023-05-07T12:41:26.838Z,67.87
2023-05-07T12:43:57.642Z,74.67
2023-05-07T12:46:24.701Z,65.23
2023-05-07T12:48:51.303Z,63.07
2023-05-07T12:51:17.822Z,63.77
2023-05-07T12:53:44.489Z,63.40
2023-05-07T12:56:11.031Z,74.93
2023-05-07T12:58:37.585Z,73.10
2023-05-07T13:01:08.462Z,67.00
2023-05-07T13:03:36.243Z,63.37
2023-05-07T13:06:11.456Z,68.70
2023-05-07T13:08:41.676Z,64.97
2023-05-07T13:11:10.018Z,60.27
2023-05-07T13:13:38.401Z,60.23
2023-05-07T13:16:06.380Z,63.13
2023-05-07T13:18:33.688Z,63.03
2023-05-07T13:21:01.895Z,62.87
2023-05-07T13:23:28.785Z,64.77
2023-05-07T13:25:56.742Z,58.67
2023-05-07T13:28:24.233Z,59.30
2023-05-07T13:30:52.792Z,60.27
2023-05-07T13:33:19.444Z,65.53
2023-05-07T13:35:45.983Z,59.70
2023-05-07T13:38:12.436Z,57.90
2023-05-07T13:40:38.913Z,58.20
2023-05-07T13:43:07.138Z,55.30
2023-05-07T13:45:34.135Z,61.53
2023-05-07T13:48:01.976Z,55.27
2023-05-07T13:50:30.191Z,62.13
2023-05-07T13:52:56.907Z,61.40
2023-05-07T13:55:24.760Z,56.97
2023-05-07T13:57:59.562Z,53.90
2023-05-07T14:00:27.460Z,64.33
2023-05-07T14:02:54.379Z,67.80
2023-05-07T14:05:21.025Z,53.07
2023-05-07T14:07:48.742Z,54.90
2023-05-07T14:10:15.557Z,55.17
2023-05-07T14:12:42.404Z,60.27
2023-05-07T14:15:09.314Z,60.20
2023-05-07T14:17:35.895Z,63.20
2023-05-07T14:20:02.509Z,55.90
2023-05-07T14:22:29.060Z,59.43
2023-05-07T14:25:05.972Z,62.37
2023-05-07T14:27:33.600Z,55.17
2023-05-07T14:30:00.772Z,55.03
2023-05-07T14:32:28.138Z,55.10
2023-05-07T14:34:54.673Z,59.63
2023-05-07T14:37:22.296Z,69.73
2023-05-07T14:39:50.530Z,56.87
2023-05-07T14:42:17.829Z,60.57
2023-05-07T14:44:45.781Z,64.93
2023-05-07T14:47:12.242Z,60.80
2023-05-07T14:49:39.042Z,58.30
2023-05-07T14:52:07.157Z,63.50
2023-05-07T14:54:38.916Z,62.20
2023-05-07T14:57:06.833Z,62.13
2023-05-07T14:59:33.375Z,61.70
2023-05-07T15:01:59.878Z,68.77
2023-05-07T15:04:26.462Z,63.23
2023-05-07T15:06:54.758Z,66.53
2023-05-07T15:09:21.271Z,62.50
2023-05-07T15:11:47.700Z,54.07
2023-05-07T15:14:14.302Z,55.27
2023-05-07T15:16:40.904Z,62.83
2023-05-07T15:19:07.536Z,63.77
2023-05-07T15:21:35.753Z,65.27
2023-05-07T15:24:02.934Z,66.30
2023-05-07T15:26:30.244Z,61.03
2023-05-07T15:28:59.617Z,73.50
2023-05-07T15:31:26.398Z,65.63
2023-05-07T15:33:53.261Z,57.83
2023-05-07T15:36:21.212Z,61.50
2023-05-07T15:38:47.695Z,58.33
2023-05-07T15:41:14.171Z,56.03
2023-05-07T15:43:49.802Z,54.63
2023-05-07T15:46:21.058Z,55.07
2023-05-07T15:48:47.731Z,56.97
2023-05-07T15:51:14.319Z,55.50
2023-05-07T15:53:41.211Z,54.10
2023-05-07T15:56:07.810Z,63.40
2023-05-07T15:58:35.845Z,55.10
2023-05-07T16:01:02.530Z,74.53
2023-05-07T16:03:32.035Z,68.73
2023-05-07T16:06:00.837Z,57.83
2023-05-07T16:08:27.659Z,55.00
2023-05-07T16:10:54.425Z,54.40
2023-05-07T16:13:21.954Z,55.27
2023-05-07T16:15:48.603Z,69.77
2023-05-07T16:18:17.986Z,60.27
2023-05-07T16:20:44.481Z,56.67
2023-05-07T16:23:13.033Z,55.80
2023-05-07T16:25:39.579Z,54.33
2023-05-07T16:28:06.787Z,55.77
2023-05-07T16:30:33.898Z,69.73
2023-05-07T16:33:02.979Z,53.87
2023-05-07T16:35:29.534Z,62.60
2023-05-07T16:37:56.066Z,58.43
2023-05-07T16:40:22.893Z,52.97
2023-05-07T16:42:49.376Z,66.37
2023-05-07T16:45:16.513Z,66.50
2023-05-07T16:47:43.137Z,58.67
2023-05-07T16:50:10.042Z,59.97
2023-05-07T16:52:36.545Z,53.93
2023-05-07T16:55:03.138Z,56.67
2023-05-07T16:57:30.736Z,63.00
2023-05-07T16:59:57.484Z,53.00
2023-05-07T17:02:24.242Z,56.80
2023-05-07T17:04:50.816Z,55.00
2023-05-07T17:07:17.544Z,54.77
2023-05-07T17:09:44.084Z,53.43
2023-05-07T17:12:10.647Z,53.83
2023-05-07T17:14:37.452Z,64.77
2023-05-07T17:17:04.096Z,55.90
2023-05-07T17:19:30.570Z,63.53
2023-05-07T17:21:57.599Z,62.60
2023-05-07T17:24:24.043Z,63.30
2023-05-07T17:26:51.022Z,64.83
2023-05-07T17:29:19.217Z,60.63
2023-05-07T17:31:46.516Z,66.80
2023-05-07T17:34:15.877Z,60.20
2023-05-07T17:36:44.139Z,66.43
2023-05-07T17:39:10.653Z,63.13
2023-05-07T17:41:37.387Z,64.23
2023-05-07T17:44:04.000Z,65.40
2023-05-07T17:46:30.778Z,66.13
2023-05-07T17:48:57.943Z,67.33
2023-05-07T17:51:25.971Z,65.97
2023-05-07T17:53:52.443Z,66.50
2023-05-07T17:56:18.902Z,61.33
2023-05-07T17:58:58.875Z,66.70
2023-05-07T18:01:26.295Z,70.07
2023-05-07T18:03:52.916Z,70.50
2023-05-07T18:06:20.817Z,69.50
2023-05-07T18:08:47.738Z,68.07
2023-05-07T18:11:14.518Z,65.37
2023-05-07T18:13:41.039Z,67.57
2023-05-07T18:16:07.699Z,67.23
2023-05-07T18:18:35.441Z,68.00
2023-05-07T18:21:03.436Z,78.20
2023-05-07T18:23:30.957Z,69.53
2023-05-07T18:25:58.501Z,69.67
2023-05-07T18:28:28.599Z,75.53
2023-05-07T18:30:55.194Z,70.50
2023-05-07T18:33:22.863Z,72.73
2023-05-07T18:35:49.318Z,78.00
2023-05-07T18:38:16.468Z,71.03
2023-05-07T18:40:44.154Z,80.83
2023-05-07T18:43:11.325Z,78.03
2023-05-07T18:45:40.796Z,78.17
2023-05-07T18:48:07.616Z,78.53
2023-05-07T18:50:34.285Z,81.73
2023-05-07T18:53:00.883Z,86.77
2023-05-07T18:55:27.408Z,81.83
2023-05-07T18:57:53.895Z,81.60
2023-05-07T19:00:20.499Z,86.97
2023-05-07T19:02:46.992Z,91.27
2023-05-07T19:05:13.550Z,85.20
2023-05-07T19:07:40.081Z,89.23
2023-05-07T19:10:07.099Z,94.77
2023-05-07T19:12:33.581Z,98.43
2023-05-07T19:15:00.162Z,92.43
2023-05-07T19:17:26.684Z,96.13
2023-05-07T19:19:53.162Z,96.60
2023-05-07T19:22:19.712Z,94.27
2023-05-07T19:24:46.173Z,97.93
2023-05-07T19:27:12.654Z,101.60
2023-05-07T19:29:40.109Z,103.37
2023-05-07T19:32:06.662Z,104.37
2023-05-07T19:34:33.274Z,105.57
2023-05-07T19:36:59.732Z,100.53
2023-05-07T19:39:27.166Z,102.63
2023-05-07T19:41:53.717Z,105.03
2023-05-07T19:44:20.283Z,108.53
2023-05-07T19:46:47.800Z,114.03
2023-05-07T19:49:14.320Z,113.30
2023-05-07T19:51:40.925Z,111.30
2023-05-07T19:54:07.376Z,107.20
2023-05-07T19:56:33.842Z,119.80
2023-05-07T19:59:00.413Z,114.07
2023-05-07T20:01:28.868Z,122.00
2023-05-07T20:03:55.835Z,120.07
2023-05-07T20:06:23.432Z,125.37
2023-05-07T20:08:50.290Z,121.77
2023-05-07T20:11:16.778Z,123.20
2023-05-07T20:13:43.265Z,125.27
2023-05-07T20:16:09.864Z,120.63
2023-05-07T20:18:36.516Z,128.10
2023-05-07T20:21:04.522Z,133.27
2023-05-07T20:23:31.177Z,125.80
2023-05-07T20:25:58.389Z,126.80
2023-05-07T20:28:25.543Z,130.10
2023-05-07T20:30:52.002Z,132.53
2023-05-07T20:33:18.544Z,133.40
2023-05-07T20:35:45.294Z,137.13
2023-05-07T20:38:11.922Z,128.03
2023-05-07T20:40:38.647Z,139.23
2023-05-07T20:43:06.617Z,140.53
2023-05-07T20:45:33.379Z,139.90
2023-05-07T20:48:00.942Z,143.77
2023-05-07T20:50:27.943Z,145.33
2023-05-07T20:52:54.425Z,149.33
2023-05-07T20:55:20.908Z,153.60
2023-05-07T20:57:47.415Z,161.43
2023-05-07T21:00:15.851Z,152.23
2023-05-07T21:02:42.623Z,151.53
2023-05-07T21:05:09.462Z,154.03
2023-05-07T21:07:35.962Z,146.30
2023-05-07T21:10:03.322Z,151.30
2023-05-07T21:12:29.848Z,159.63
2023-05-07T21:14:56.730Z,151.37
2023-05-07T21:17:23.303Z,153.60
2023-05-07T21:19:50.180Z,161.37
2023-05-07T21:22:16.834Z,157.47
2023-05-07T21:24:44.073Z,159.57
2023-05-07T21:27:10.836Z,157.57
2023-05-07T21:29:38.603Z,158.07
2023-05-07T21:32:05.611Z,159.57
2023-05-07T21:34:32.164Z,159.37
2023-05-07T21:36:58.755Z,163.73
2023-05-07T21:39:25.514Z,157.03
2023-05-07T21:41:51.951Z,164.77
2023-05-07T21:44:18.428Z,162.97
2023-05-07T21:46:45.201Z,156.67
2023-05-07T21:49:11.992Z,160.07
2023-05-07T21:51:38.613Z,157.13
2023-05-07T21:54:05.366Z,146.20
2023-05-07T21:56:31.870Z,153.90
2023-05-07T21:58:58.438Z,151.47
2023-05-07T22:01:25.132Z,153.37
2023-05-07T22:03:52.027Z,157.33
2023-05-07T22:06:22.646Z,152.33
2023-05-07T22:08:49.723Z,149.00
2023-05-07T22:11:16.228Z,143.57
2023-05-07T22:13:43.796Z,146.60
2023-05-07T22:16:10.366Z,150.93
2023-05-07T22:18:36.843Z,147.77
2023-05-07T22:21:03.364Z,143.93
2023-05-07T22:23:29.884Z,138.03
2023-05-07T22:25:56.364Z,137.93
2023-05-07T22:28:22.808Z,141.87
2023-05-07T22:30:50.441Z,132.13
2023-05-07T22:33:16.968Z,133.60
2023-05-07T22:35:43.463Z,131.87
2023-05-07T22:38:09.937Z,133.70
2023-05-07T22:40:36.408Z,133.83
2023-05-07T22:43:02.865Z,130.93
2023-05-07T22:45:29.374Z,126.80
2023-05-07T22:47:55.824Z,130.37
2023-05-07T22:50:22.571Z,125.83
2023-05-07T22:52:49.145Z,126.70
2023-05-07T22:55:15.758Z,135.73
2023-05-07T22:57:42.246Z,129.53
2023-05-07T23:00:10.022Z,133.63
2023-05-07T23:02:36.936Z,125.87
2023-05-07T23:05:03.804Z,125.77
2023-05-07T23:07:30.495Z,123.60
2023-05-07T23:09:57.072Z,120.13
2023-05-07T23:12:23.573Z,125.33
2023-05-07T23:14:50.153Z,126.60
2023-05-07T23:17:17.062Z,128.97
2023-05-07T23:19:43.622Z,129.30
2023-05-07T23:22:10.456Z,124.93
2023-05-07T23:24:37.027Z,124.07
2023-05-07T23:27:07.291Z,129.73
2023-05-07T23:29:34.285Z,128.00
2023-05-07T23:32:01.870Z,129.90
2023-05-07T23:34:28.343Z,127.90
2023-05-07T23:36:54.913Z,128.63
2023-05-07T23:39:21.385Z,131.10
2023-05-07T23:41:47.988Z,129.87
2023-05-07T23:44:16.651Z,136.20
2023-05-07T23:46:44.473Z,131.03
2023-05-07T23:49:11.179Z,122.10
2023-05-07T23:51:37.961Z,134.80
2023-05-07T23:54:04.776Z,130.20
2023-05-07T23:56:31.579Z,132.10
2023-05-07T23:58:58.107Z,130.10
